Easy to use

vPilot, FSInn, and Squawkbox

VATSIM has 3 different client software available to choose by the user. The 3 different softwares are relatively easy to use and enjoyable to the user's experience. The software's operating manual is available to download in case user has not been able to fully operate the software to get a real working pilot experience.

Radar that functions similarly to real ATC's radar

EuroScope & VRC

VATSIM uses an advanced radar client simulating real ATC experience in the real world. Although it said to be advanced, both radar clients are very easy to use. Another interesting point is VATSIM has the technology to break the limit between simulation and real life experience.

With VATSIM, you can learn more about aviation.
You can also discuss with other aviation geek.

Unforgettable Experience

Current Activity

ATC

Name Position
Farid Farhan (1260785) WARR_GND
TRISTAN LIU (1295736) WICA_TWR

Pilot

Callsign Name Route
CPA785Chris Potter (1269016)VHHH-WADD
JSA202Jeremias Marco WIII (1336093)WIII-WSSS
LNI762Gufran Shaikh (1286860)WIII-WALL

*This information may not be up to date.

METAR

Airport Name - Location (ICAO) METAR
Sultan Hasanuddin - Makassar (WAAA)METAR WAAA 261600Z 21003KT 8000 FEW019 24/22 Q1011|NOSIG=
I Gusti Ngurah Rai - Denpasar (WADD)METAR WADD 261600Z 13009KT 9999 FEW017 25/22 Q1013|NOSIG=
Ahmad Yani - Semarang (WAHS)METAR WAHS 261600Z 00000KT 6000 FEW014 27/21 Q1012=
Juanda - Surabaya (WARR)METAR WARR 261600Z 15004KT 5000 HZ FEW020 26/23 Q1012|NOSIG=
Soekarno Hatta - Jakarta (WIII)METAR WIII 261600Z 24006KT 5000 HZ FEW020 26/21 Q1012|NOSIG=
Halim Perdana Kusuma - Jakarta (WIHH)There is no METAR for Halim Perdana Kusuma - Jakarta.
Kualanamu International Airport - Deli Serdang (WIMM)SPECI WIMM 261607Z 19005KT 8000 -RA FEW016CB SCT017 24/22 Q1011|NOSIG=

*METAR resource from BMKG. This information may not be up to date.

VATSIM Indonesia vACC VATSIM South East Asia VATSIM Asia